createdAt,value
2022-11-01T00:00:07.715Z,0.00
2022-11-01T00:01:07.830Z,0.00
2022-11-01T00:02:07.872Z,0.00
2022-11-01T00:03:07.742Z,0.00
2022-11-01T00:04:07.714Z,0.00
2022-11-01T00:05:07.768Z,0.00
2022-11-01T00:06:07.717Z,0.00
2022-11-01T00:07:07.756Z,0.00
2022-11-01T00:08:07.740Z,0.00
2022-11-01T00:09:07.735Z,0.00
2022-11-01T00:10:07.891Z,0.00
2022-11-01T00:11:07.816Z,0.00
2022-11-01T00:12:07.740Z,0.00
2022-11-01T00:13:07.771Z,0.00
2022-11-01T00:14:07.773Z,0.00
2022-11-01T00:15:08.009Z,0.00
2022-11-01T00:16:07.771Z,0.00
2022-11-01T00:17:07.795Z,0.00
2022-11-01T00:18:07.837Z,0.00
2022-11-01T00:19:07.863Z,0.00
2022-11-01T00:20:07.836Z,0.00
2022-11-01T00:21:07.863Z,0.00
2022-11-01T00:22:07.852Z,0.00
2022-11-01T00:23:07.813Z,0.00
2022-11-01T00:24:07.891Z,0.00
2022-11-01T00:25:07.901Z,0.00
2022-11-01T00:26:07.870Z,0.00
2022-11-01T00:27:07.874Z,0.00
2022-11-01T00:28:07.882Z,0.00
2022-11-01T00:29:07.858Z,0.00
2022-11-01T00:30:07.909Z,0.00
2022-11-01T00:31:11.749Z,0.00
2022-11-01T00:32:07.857Z,0.00
2022-11-01T00:33:07.889Z,0.00
2022-11-01T00:34:07.937Z,0.00
2022-11-01T00:35:07.972Z,0.00
2022-11-01T00:36:08.053Z,0.00
2022-11-01T00:37:08.016Z,0.00
2022-11-01T00:38:08.005Z,0.00
2022-11-01T00:39:07.978Z,0.00
2022-11-01T00:40:08.031Z,0.00
2022-11-01T00:41:08.115Z,0.00
2022-11-01T00:42:08.042Z,0.00
2022-11-01T00:43:08.106Z,0.00
2022-11-01T00:44:08.028Z,0.00
2022-11-01T00:45:08.106Z,0.00
2022-11-01T00:46:08.093Z,0.00
2022-11-01T00:47:08.112Z,0.00
2022-11-01T00:48:08.082Z,0.00
2022-11-01T00:49:08.109Z,0.00
2022-11-01T00:50:08.137Z,0.00
2022-11-01T00:51:08.159Z,0.00
2022-11-01T00:52:08.093Z,0.00
2022-11-01T00:53:08.180Z,0.00
2022-11-01T00:54:08.187Z,0.00
2022-11-01T00:55:08.109Z,0.00
2022-11-01T00:56:08.051Z,0.00
2022-11-01T00:57:08.177Z,0.00
2022-11-01T00:58:08.094Z,0.00
2022-11-01T00:59:08.088Z,0.00
2022-11-01T01:00:08.113Z,0.00
2022-11-01T01:01:08.377Z,0.00
2022-11-01T01:02:08.316Z,0.00
2022-11-01T01:03:08.152Z,0.00
2022-11-01T01:04:08.077Z,0.00
2022-11-01T01:05:08.094Z,0.00
2022-11-01T01:06:08.096Z,0.00
2022-11-01T01:07:08.112Z,0.00
2022-11-01T01:08:08.099Z,0.00
2022-11-01T01:09:08.153Z,0.00
2022-11-01T01:10:08.115Z,0.00
2022-11-01T01:11:08.133Z,0.00
2022-11-01T01:12:08.139Z,0.00
2022-11-01T01:13:08.152Z,0.00
2022-11-01T01:14:08.188Z,0.00
2022-11-01T01:15:08.192Z,0.00
2022-11-01T01:16:08.201Z,0.00
2022-11-01T01:17:08.147Z,0.00
2022-11-01T01:18:08.176Z,0.00
2022-11-01T01:19:08.151Z,0.00
2022-11-01T01:20:08.159Z,0.00
2022-11-01T01:21:08.220Z,0.00
2022-11-01T01:22:08.250Z,0.00
2022-11-01T01:23:08.209Z,0.00
2022-11-01T01:24:08.348Z,0.00
2022-11-01T01:25:08.223Z,0.00
2022-11-01T01:26:08.224Z,0.00
2022-11-01T01:27:08.216Z,0.00
2022-11-01T01:28:08.217Z,0.00
2022-11-01T01:29:08.209Z,0.00
2022-11-01T01:30:08.170Z,0.00
2022-11-01T01:31:08.298Z,0.00
2022-11-01T01:32:08.236Z,0.00
2022-11-01T01:33:08.291Z,0.00
2022-11-01T01:34:08.257Z,0.00
2022-11-01T01:35:08.286Z,0.00
2022-11-01T01:36:08.360Z,0.00
2022-11-01T01:37:08.288Z,0.00
2022-11-01T01:38:08.325Z,0.00
2022-11-01T01:39:08.359Z,0.00
2022-11-01T01:40:08.347Z,0.00
2022-11-01T01:41:08.418Z,0.00
2022-11-01T01:42:08.416Z,0.00
2022-11-01T01:43:08.516Z,0.00
2022-11-01T01:44:08.481Z,0.00
2022-11-01T01:45:08.395Z,0.00
2022-11-01T01:46:08.411Z,0.00
2022-11-01T01:47:08.420Z,0.00
2022-11-01T01:48:08.492Z,0.00
2022-11-01T01:49:08.512Z,0.00
2022-11-01T01:50:08.524Z,0.00
2022-11-01T01:51:08.506Z,0.00
2022-11-01T01:52:08.526Z,0.00
2022-11-01T01:53:08.491Z,0.00
2022-11-01T01:54:08.426Z,0.00
2022-11-01T01:55:08.463Z,0.00
2022-11-01T01:56:08.439Z,0.00
2022-11-01T01:57:08.485Z,0.00
2022-11-01T01:58:08.501Z,0.00
2022-11-01T01:59:08.500Z,0.00
2022-11-01T02:00:08.554Z,0.00
2022-11-01T02:01:08.756Z,0.00
2022-11-01T02:02:08.685Z,0.00
2022-11-01T02:03:08.586Z,0.00
2022-11-01T02:04:08.601Z,0.00
2022-11-01T02:05:08.597Z,0.00
2022-11-01T02:06:08.613Z,0.00
2022-11-01T02:07:08.633Z,0.00
2022-11-01T02:08:08.634Z,0.00
2022-11-01T02:09:08.749Z,0.00
2022-11-01T02:10:08.653Z,0.00
2022-11-01T02:11:08.647Z,0.00
2022-11-01T02:12:08.696Z,0.00
2022-11-01T02:13:08.701Z,0.00
2022-11-01T02:14:08.718Z,0.00
2022-11-01T02:15:08.786Z,0.00
2022-11-01T02:16:08.782Z,0.00
2022-11-01T02:17:09.703Z,0.00
2022-11-01T02:18:08.798Z,0.00
2022-11-01T02:19:08.753Z,0.00
2022-11-01T02:20:08.774Z,0.00
2022-11-01T02:21:08.793Z,0.00
2022-11-01T02:22:08.882Z,0.00
2022-11-01T02:23:08.873Z,0.00
2022-11-01T02:24:08.890Z,0.00
2022-11-01T02:25:08.840Z,0.00
2022-11-01T02:26:08.841Z,0.00
2022-11-01T02:27:08.851Z,0.00
2022-11-01T02:28:08.873Z,0.00
2022-11-01T02:29:08.843Z,0.00
2022-11-01T02:30:08.803Z,0.00
2022-11-01T02:31:08.884Z,0.00
2022-11-01T02:32:08.902Z,0.00
2022-11-01T02:33:08.848Z,0.00
2022-11-01T02:34:08.885Z,0.00
2022-11-01T02:35:08.941Z,0.00
2022-11-01T02:36:08.922Z,0.00
2022-11-01T02:37:08.903Z,0.00
2022-11-01T02:38:08.965Z,0.00
2022-11-01T02:39:08.995Z,0.00
2022-11-01T02:40:08.932Z,0.00
2022-11-01T02:41:08.985Z,0.00
2022-11-01T02:42:08.950Z,0.00
2022-11-01T02:43:09.000Z,0.00
2022-11-01T02:44:08.954Z,0.00
2022-11-01T02:45:08.998Z,0.00
2022-11-01T02:46:09.035Z,0.00
2022-11-01T02:47:08.974Z,0.00
2022-11-01T02:48:09.078Z,0.00
2022-11-01T02:49:09.084Z,0.00
2022-11-01T02:50:09.060Z,0.00
2022-11-01T02:51:09.051Z,0.00
2022-11-01T02:52:09.015Z,0.00
2022-11-01T02:53:09.121Z,0.00
2022-11-01T02:54:09.087Z,0.00
2022-11-01T02:55:09.056Z,0.00
2022-11-01T02:56:09.056Z,0.00
2022-11-01T02:57:09.107Z,0.00
2022-11-01T02:58:09.057Z,0.00
2022-11-01T02:59:09.203Z,0.00
2022-11-01T03:00:09.057Z,0.00
2022-11-01T03:01:09.262Z,0.00
2022-11-01T03:02:09.192Z,0.00
2022-11-01T03:03:09.096Z,0.00
2022-11-01T03:04:09.109Z,0.00
2022-11-01T03:05:09.082Z,0.00
2022-11-01T03:06:09.129Z,0.00
2022-11-01T03:07:09.136Z,0.00
2022-11-01T03:08:09.181Z,0.00
2022-11-01T03:09:09.182Z,0.00
2022-11-01T03:10:09.087Z,0.00
2022-11-01T03:11:09.255Z,0.00
2022-11-01T03:12:09.213Z,0.00
2022-11-01T03:13:09.176Z,0.00
2022-11-01T03:14:09.264Z,0.00
2022-11-01T03:15:09.168Z,0.00
2022-11-01T03:16:09.270Z,0.00
2022-11-01T03:17:09.222Z,0.00
2022-11-01T03:18:09.287Z,0.00
2022-11-01T03:19:09.279Z,0.00
2022-11-01T03:20:09.273Z,0.00
2022-11-01T03:21:09.334Z,0.00
2022-11-01T03:22:09.323Z,0.00
2022-11-01T03:23:09.301Z,0.00
2022-11-01T03:24:09.305Z,0.00
2022-11-01T03:25:09.315Z,0.00
2022-11-01T03:26:09.573Z,0.00
2022-11-01T03:27:09.322Z,0.00
2022-11-01T03:28:09.348Z,0.00
2022-11-01T03:29:09.371Z,0.00
2022-11-01T03:30:09.346Z,0.00
2022-11-01T03:31:09.373Z,0.00
2022-11-01T03:32:09.405Z,0.00
2022-11-01T03:33:09.374Z,0.00
2022-11-01T03:34:09.394Z,0.00
2022-11-01T03:35:09.405Z,0.00
2022-11-01T03:36:13.527Z,0.00
2022-11-01T03:37:09.413Z,0.00
2022-11-01T03:38:09.459Z,0.00
2022-11-01T03:39:09.402Z,0.00
2022-11-01T03:40:09.530Z,0.00
2022-11-01T03:41:09.426Z,0.00
2022-11-01T03:42:09.460Z,0.00
2022-11-01T03:43:09.518Z,0.00
2022-11-01T03:44:09.497Z,0.00
2022-11-01T03:45:09.593Z,0.00
2022-11-01T03:46:09.520Z,0.00
2022-11-01T03:47:09.525Z,0.00
2022-11-01T03:48:09.595Z,0.00
2022-11-01T03:49:09.671Z,0.00
2022-11-01T03:50:09.643Z,0.00
2022-11-01T03:51:09.640Z,0.00
2022-11-01T03:52:09.628Z,0.00
2022-11-01T03:53:10.318Z,0.00
2022-11-01T03:54:09.626Z,0.00
2022-11-01T03:55:09.640Z,0.00
2022-11-01T03:56:09.642Z,0.00
2022-11-01T03:57:09.668Z,0.00
2022-11-01T03:58:09.823Z,0.00
2022-11-01T03:59:09.729Z,0.00
2022-11-01T04:00:09.715Z,0.00
2022-11-01T04:01:09.866Z,0.00
2022-11-01T04:03:09.854Z,0.00
2022-11-01T04:04:09.838Z,0.00
2022-11-01T04:05:09.784Z,0.00
2022-11-01T04:06:09.789Z,0.00
2022-11-01T04:07:09.913Z,0.00
2022-11-01T04:08:09.845Z,0.00
2022-11-01T04:09:09.951Z,0.00
2022-11-01T04:10:09.920Z,0.00
2022-11-01T04:11:09.858Z,0.00
2022-11-01T04:12:09.953Z,0.00
2022-11-01T04:13:09.911Z,0.00
2022-11-01T04:14:10.048Z,0.00
2022-11-01T04:15:09.880Z,0.00
2022-11-01T04:16:09.981Z,0.00
2022-11-01T04:17:09.885Z,0.00
2022-11-01T04:18:09.950Z,0.00
2022-11-01T04:19:09.923Z,0.00
2022-11-01T04:20:09.910Z,0.00
2022-11-01T04:21:09.933Z,0.00
2022-11-01T04:22:09.940Z,0.00
2022-11-01T04:23:10.102Z,0.00
2022-11-01T04:24:10.102Z,0.00
2022-11-01T04:25:10.019Z,0.00
2022-11-01T04:26:10.051Z,0.00
2022-11-01T04:27:10.003Z,0.00
2022-11-01T04:28:10.065Z,0.00
2022-11-01T04:29:10.067Z,0.00
2022-11-01T04:30:10.066Z,0.00
2022-11-01T04:31:10.061Z,0.00
2022-11-01T04:32:10.054Z,0.00
2022-11-01T04:33:10.088Z,0.00
2022-11-01T04:34:10.035Z,0.00
2022-11-01T04:35:10.053Z,0.00
2022-11-01T04:36:10.073Z,0.00
2022-11-01T04:37:10.062Z,0.00
2022-11-01T04:38:10.132Z,0.00
2022-11-01T04:39:10.148Z,0.00
2022-11-01T04:40:10.112Z,0.00
2022-11-01T04:41:10.161Z,0.00
2022-11-01T04:42:10.132Z,0.00
2022-11-01T04:43:10.173Z,0.00
2022-11-01T04:44:10.211Z,0.00
2022-11-01T04:45:10.232Z,0.00
2022-11-01T04:46:10.165Z,0.00
2022-11-01T04:47:10.173Z,0.00
2022-11-01T04:48:10.216Z,0.00
2022-11-01T04:49:10.234Z,0.00
2022-11-01T04:50:10.167Z,0.00
2022-11-01T04:51:10.280Z,0.00
2022-11-01T04:52:10.251Z,0.00
2022-11-01T04:53:10.251Z,0.00
2022-11-01T04:54:10.284Z,0.00
2022-11-01T04:55:10.268Z,0.00
2022-11-01T04:56:10.269Z,0.00
2022-11-01T04:57:10.296Z,0.00
2022-11-01T04:58:10.561Z,0.00
2022-11-01T04:59:10.333Z,0.00
2022-11-01T05:00:10.300Z,0.00
2022-11-01T05:01:10.513Z,0.00
2022-11-01T05:02:10.505Z,0.00
2022-11-01T05:03:10.352Z,0.00
2022-11-01T05:04:10.327Z,0.00
2022-11-01T05:05:10.325Z,0.00
2022-11-01T05:06:10.397Z,0.00
2022-11-01T05:07:10.378Z,0.00
2022-11-01T05:08:10.399Z,0.00
2022-11-01T05:09:10.418Z,0.00
2022-11-01T05:10:10.495Z,0.00
2022-11-01T05:11:10.425Z,0.00
2022-11-01T05:12:10.525Z,0.00
2022-11-01T05:13:10.454Z,0.00
2022-11-01T05:14:10.455Z,0.00
2022-11-01T05:15:10.516Z,0.00
2022-11-01T05:16:25.739Z,0.00
2022-11-01T05:17:10.533Z,0.00
2022-11-01T05:18:10.501Z,0.00
2022-11-01T05:19:10.548Z,0.00
2022-11-01T05:20:10.541Z,0.00
2022-11-01T05:21:10.500Z,0.00
2022-11-01T05:22:10.549Z,0.00
2022-11-01T05:23:10.613Z,0.00
2022-11-01T05:24:10.610Z,0.00
2022-11-01T05:25:10.575Z,0.00
2022-11-01T05:26:10.550Z,0.00
2022-11-01T05:27:10.532Z,0.00
2022-11-01T05:28:10.634Z,0.00
2022-11-01T05:29:24.369Z,0.00
2022-11-01T05:30:10.556Z,0.00
2022-11-01T05:31:10.588Z,0.00
2022-11-01T05:32:10.569Z,0.00
2022-11-01T05:33:10.680Z,0.00
2022-11-01T05:34:10.663Z,0.00
2022-11-01T05:35:10.629Z,0.00
2022-11-01T05:36:10.624Z,0.00
2022-11-01T05:37:10.665Z,0.00
2022-11-01T05:38:10.716Z,0.00
2022-11-01T05:39:10.666Z,0.00
2022-11-01T05:40:10.728Z,0.00
2022-11-01T05:41:10.757Z,0.00
2022-11-01T05:42:10.818Z,0.00
2022-11-01T05:43:10.834Z,0.00
2022-11-01T05:44:10.773Z,0.00
2022-11-01T05:45:10.739Z,0.00
2022-11-01T05:46:10.772Z,0.00
2022-11-01T05:47:13.334Z,0.00
2022-11-01T05:48:10.799Z,0.00
2022-11-01T05:49:10.853Z,0.00
2022-11-01T05:50:10.900Z,0.00
2022-11-01T05:51:10.830Z,0.00
2022-11-01T05:52:10.845Z,0.00
2022-11-01T05:53:10.898Z,0.00
2022-11-01T05:54:10.890Z,1.00
2022-11-01T05:55:10.892Z,1.00
2022-11-01T05:56:10.969Z,0.00
2022-11-01T05:57:10.906Z,1.00
2022-11-01T05:58:10.915Z,1.00
2022-11-01T05:59:10.911Z,1.00
2022-11-01T06:00:11.010Z,2.00
2022-11-01T06:02:36.897Z,1.00
2022-11-01T06:03:36.781Z,2.00
2022-11-01T06:04:36.810Z,3.00
2022-11-01T06:05:36.818Z,2.00
2022-11-01T06:06:36.833Z,3.00
2022-11-01T06:07:36.852Z,3.00
2022-11-01T06:08:36.821Z,4.00
2022-11-01T06:09:36.828Z,4.00
2022-11-01T06:10:36.841Z,4.00
2022-11-01T06:11:41.477Z,4.00
2022-11-01T06:12:36.876Z,5.00
2022-11-01T06:13:36.900Z,6.00
2022-11-01T06:14:36.913Z,6.00
2022-11-01T06:15:38.887Z,6.00
2022-11-01T06:16:36.931Z,6.00
2022-11-01T06:17:36.937Z,5.00
2022-11-01T06:18:36.963Z,6.00
2022-11-01T06:19:36.959Z,7.00
2022-11-01T06:20:37.004Z,7.00
2022-11-01T06:21:36.965Z,7.00
2022-11-01T06:22:36.985Z,8.00
2022-11-01T06:23:36.987Z,9.00
2022-11-01T06:24:37.016Z,10.00
2022-11-01T06:25:37.044Z,11.00
2022-11-01T06:26:37.075Z,11.00
2022-11-01T06:27:37.072Z,11.00
2022-11-01T06:28:37.076Z,12.00
2022-11-01T06:29:37.094Z,12.00
2022-11-01T06:30:37.126Z,13.00
2022-11-01T06:31:37.150Z,13.00
2022-11-01T06:32:37.153Z,14.00
2022-11-01T06:33:37.161Z,15.00
2022-11-01T06:34:40.870Z,15.00
2022-11-01T06:35:37.323Z,16.00
2022-11-01T06:36:37.218Z,18.00
2022-11-01T06:37:37.221Z,18.00
2022-11-01T06:38:37.246Z,20.00
2022-11-01T06:39:37.275Z,21.00
2022-11-01T06:40:37.297Z,23.00
2022-11-01T06:41:37.282Z,23.00
2022-11-01T06:42:38.143Z,25.00
2022-11-01T06:43:37.318Z,28.00
2022-11-01T06:44:37.331Z,29.00
2022-11-01T06:45:37.371Z,32.00
2022-11-01T06:46:37.373Z,37.00
2022-11-01T06:48:37.384Z,47.00
2022-11-01T06:49:37.404Z,52.00
2022-11-01T06:50:37.440Z,55.00
2022-11-01T06:51:37.424Z,59.00
2022-11-01T06:52:37.427Z,61.00
2022-11-01T06:53:37.445Z,64.00
2022-11-01T06:54:37.425Z,66.00
2022-11-01T06:55:37.448Z,71.00
2022-11-01T06:56:37.461Z,76.00
2022-11-01T06:57:37.495Z,80.00
2022-11-01T06:58:37.512Z,85.00
2022-11-01T06:59:37.496Z,91.00
2022-11-01T07:00:37.524Z,96.00
2022-11-01T07:01:37.715Z,100.00
2022-11-01T07:02:37.767Z,101.00
2022-11-01T07:03:37.537Z,99.00
2022-11-01T07:04:37.575Z,95.00
2022-11-01T07:05:37.789Z,93.00
2022-11-01T07:06:37.577Z,93.00
2022-11-01T07:07:37.615Z,97.00
2022-11-01T07:08:37.656Z,101.00
2022-11-01T07:09:37.668Z,107.00
2022-11-01T07:10:37.667Z,113.00
2022-11-01T07:11:37.675Z,122.00
2022-11-01T07:12:37.703Z,133.00
2022-11-01T07:13:37.676Z,139.00
2022-11-01T07:14:37.696Z,143.00
2022-11-01T07:15:37.693Z,146.00
2022-11-01T07:16:37.709Z,147.00
2022-11-01T07:17:37.734Z,148.00
2022-11-01T07:18:37.732Z,147.00
2022-11-01T07:19:37.746Z,143.00
2022-11-01T07:20:37.794Z,143.00
2022-11-01T07:21:37.771Z,147.00
2022-11-01T07:22:37.769Z,153.00
2022-11-01T07:23:37.793Z,160.00
2022-11-01T07:24:37.851Z,165.00
2022-11-01T07:25:37.814Z,170.00
2022-11-01T07:26:37.821Z,174.00
2022-11-01T07:27:37.857Z,177.00
2022-11-01T07:28:37.864Z,182.00
2022-11-01T07:29:37.862Z,186.00
2022-11-01T07:30:37.896Z,188.00
2022-11-01T07:31:37.909Z,191.00
2022-11-01T07:32:39.955Z,194.00
2022-11-01T07:33:37.936Z,202.00
2022-11-01T07:34:37.963Z,210.00
2022-11-01T07:35:37.978Z,215.00
2022-11-01T07:36:38.003Z,217.00
2022-11-01T07:37:38.019Z,216.00
2022-11-01T07:38:38.006Z,216.00
2022-11-01T07:39:38.038Z,216.00
2022-11-01T07:40:38.065Z,216.00
2022-11-01T07:41:38.069Z,222.00
2022-11-01T07:42:38.109Z,231.00
2022-11-01T07:43:38.112Z,235.00
2022-11-01T07:44:38.128Z,235.00
2022-11-01T07:45:38.145Z,240.00
2022-11-01T07:46:38.168Z,240.00
2022-11-01T07:47:38.218Z,241.00
2022-11-01T07:48:38.238Z,240.00
2022-11-01T07:49:38.236Z,236.00
2022-11-01T07:50:38.237Z,234.00
2022-11-01T07:51:38.259Z,238.00
2022-11-01T07:52:38.280Z,245.00
2022-11-01T07:53:38.314Z,249.00
2022-11-01T07:54:38.340Z,253.00
2022-11-01T07:55:38.355Z,253.00
2022-11-01T07:56:38.401Z,252.00
2022-11-01T07:57:38.405Z,254.00
2022-11-01T07:58:38.432Z,254.00
2022-11-01T07:59:38.431Z,258.00
2022-11-01T08:00:38.452Z,262.00
2022-11-01T08:01:38.651Z,267.00
2022-11-01T08:02:38.569Z,271.00
2022-11-01T08:03:38.487Z,274.00
2022-11-01T08:04:38.512Z,278.00
2022-11-01T08:05:38.529Z,278.00
2022-11-01T08:06:38.549Z,278.00
2022-11-01T08:07:38.570Z,279.00
2022-11-01T08:08:38.565Z,279.00
2022-11-01T08:09:38.534Z,278.00
2022-11-01T08:10:38.541Z,276.00
2022-11-01T08:11:38.554Z,276.00
2022-11-01T08:12:38.608Z,277.00
2022-11-01T08:13:38.604Z,281.00
2022-11-01T08:14:38.583Z,289.00
2022-11-01T08:15:38.617Z,296.00
2022-11-01T08:16:38.577Z,306.00
2022-11-01T08:17:38.609Z,313.00
2022-11-01T08:18:38.591Z,320.00
2022-11-01T08:19:38.595Z,326.00
2022-11-01T08:20:38.611Z,330.00
2022-11-01T08:21:38.638Z,334.00
2022-11-01T08:22:38.741Z,339.00
2022-11-01T08:23:38.685Z,339.00
2022-11-01T08:24:38.697Z,339.00
2022-11-01T08:25:38.711Z,336.00
2022-11-01T08:26:38.723Z,336.00
2022-11-01T08:27:38.749Z,333.00
2022-11-01T08:28:38.774Z,335.00
2022-11-01T08:29:38.766Z,340.00
2022-11-01T08:30:38.787Z,347.00
2022-11-01T08:31:38.821Z,355.00
2022-11-01T08:32:38.827Z,356.00
2022-11-01T08:33:38.838Z,361.00
2022-11-01T08:34:38.818Z,364.00
2022-11-01T08:35:38.843Z,362.00
2022-11-01T08:36:38.842Z,362.00
2022-11-01T08:37:38.853Z,361.00
2022-11-01T08:38:38.872Z,365.00
2022-11-01T08:39:38.861Z,371.00
2022-11-01T08:40:38.876Z,374.00
2022-11-01T08:41:38.872Z,380.00
2022-11-01T08:42:38.899Z,384.00
2022-11-01T08:43:40.822Z,391.00
2022-11-01T08:44:38.931Z,400.00
2022-11-01T08:45:38.937Z,407.00
2022-11-01T08:46:38.943Z,409.00
2022-11-01T08:47:38.970Z,414.00
2022-11-01T08:48:39.003Z,421.00
2022-11-01T08:49:38.996Z,423.00
2022-11-01T08:50:39.001Z,424.00
2022-11-01T08:51:39.031Z,423.00
2022-11-01T08:52:39.060Z,427.00
2022-11-01T08:53:39.091Z,424.00
2022-11-01T08:54:39.088Z,428.00
2022-11-01T08:55:39.141Z,435.00
2022-11-01T08:56:39.129Z,444.00
2022-11-01T08:57:39.126Z,457.00
2022-11-01T08:58:39.172Z,468.00
2022-11-01T08:59:39.151Z,475.00
2022-11-01T09:00:39.192Z,484.00
2022-11-01T09:01:39.285Z,487.00
2022-11-01T09:02:39.244Z,489.00
2022-11-01T09:03:39.167Z,487.00
2022-11-01T09:04:39.183Z,494.00
2022-11-01T09:05:39.185Z,495.00
2022-11-01T09:06:39.211Z,494.00
2022-11-01T09:07:39.219Z,493.00
2022-11-01T09:08:39.293Z,483.00
2022-11-01T09:09:39.264Z,467.00
2022-11-01T09:10:39.284Z,460.00
2022-11-01T09:11:39.293Z,456.00
2022-11-01T09:13:39.336Z,444.00
2022-11-01T09:14:39.357Z,440.00
2022-11-01T09:15:39.377Z,438.00
2022-11-01T09:16:39.405Z,441.00
2022-11-01T09:17:39.411Z,441.00
2022-11-01T09:18:39.449Z,437.00
2022-11-01T09:19:39.464Z,434.00
2022-11-01T09:20:39.443Z,435.00
2022-11-01T09:21:39.476Z,433.00
2022-11-01T09:22:39.506Z,431.00
2022-11-01T09:23:39.528Z,443.00
2022-11-01T09:24:39.550Z,462.00
2022-11-01T09:25:39.551Z,457.00
2022-11-01T09:26:39.566Z,461.00
2022-11-01T09:27:39.582Z,455.00
2022-11-01T09:28:39.597Z,472.00
2022-11-01T09:29:39.615Z,480.00
2022-11-01T09:30:45.212Z,491.00
2022-11-01T09:31:39.642Z,503.00
2022-11-01T09:32:39.713Z,481.00
2022-11-01T09:33:39.714Z,460.00
2022-11-01T09:34:39.686Z,450.00
2022-11-01T09:35:39.725Z,417.00
2022-11-01T09:36:39.727Z,395.00
2022-11-01T09:37:39.734Z,367.00
2022-11-01T09:38:39.763Z,356.00
2022-11-01T09:39:39.746Z,320.00
2022-11-01T09:40:39.756Z,331.00
2022-11-01T09:41:39.779Z,319.00
2022-11-01T09:42:39.881Z,324.00
2022-11-01T09:43:39.820Z,331.00
2022-11-01T09:44:39.857Z,341.00
2022-11-01T09:45:39.864Z,347.00
2022-11-01T09:46:39.872Z,352.00
2022-11-01T09:47:39.886Z,480.00
2022-11-01T09:48:39.930Z,530.00
2022-11-01T09:49:39.938Z,551.00
2022-11-01T09:50:39.958Z,556.00
2022-11-01T09:51:39.974Z,601.00
2022-11-01T09:52:39.992Z,622.00
2022-11-01T09:53:40.001Z,614.00
2022-11-01T09:54:40.026Z,630.00
2022-11-01T09:55:40.053Z,658.00
2022-11-01T09:56:40.080Z,728.00
2022-11-01T09:57:40.099Z,692.00
2022-11-01T09:58:40.102Z,715.00
2022-11-01T09:59:40.084Z,568.00
2022-11-01T10:00:40.188Z,592.00
2022-11-01T10:01:40.260Z,550.00
2022-11-01T10:02:40.148Z,552.00
2022-11-01T10:03:40.160Z,587.00
2022-11-01T10:04:40.198Z,558.00
2022-11-01T10:05:40.196Z,690.00
2022-11-01T10:06:40.219Z,741.00
2022-11-01T10:07:40.228Z,729.00
2022-11-01T10:08:40.245Z,705.00
2022-11-01T10:09:40.259Z,650.00
2022-11-01T10:10:40.266Z,653.00
2022-11-01T10:11:40.320Z,698.00
2022-11-01T10:12:40.298Z,723.00
2022-11-01T10:13:40.285Z,753.00
2022-11-01T10:14:40.295Z,878.00
2022-11-01T10:15:40.363Z,899.00
2022-11-01T10:16:40.323Z,930.00
2022-11-01T10:17:40.335Z,950.00
2022-11-01T10:18:41.564Z,902.00
2022-11-01T10:19:40.367Z,963.00
2022-11-01T10:20:40.427Z,949.00
2022-11-01T10:21:40.403Z,883.00
2022-11-01T10:22:40.443Z,925.00
2022-11-01T10:23:40.428Z,908.00
2022-11-01T10:24:40.473Z,956.00
2022-11-01T10:25:40.448Z,1051.00
2022-11-01T10:26:40.474Z,970.00
2022-11-01T10:27:40.454Z,920.00
2022-11-01T10:28:40.480Z,1032.00
2022-11-01T10:29:40.500Z,981.00
2022-11-01T10:30:40.526Z,975.00
2022-11-01T10:31:40.556Z,942.00
2022-11-01T10:32:40.577Z,941.00
2022-11-01T10:33:40.582Z,636.00
2022-11-01T10:34:40.615Z,487.00
2022-11-01T10:35:40.644Z,467.00
2022-11-01T10:36:40.708Z,408.00
2022-11-01T10:37:47.305Z,443.00
2022-11-01T10:39:16.591Z,409.00
2022-11-01T10:39:58.855Z,367.00
2022-11-01T10:40:40.747Z,392.00
2022-11-01T10:41:40.767Z,323.00
2022-11-01T10:42:40.792Z,258.00
2022-11-01T10:43:40.816Z,242.00
2022-11-01T10:44:40.838Z,216.00
2022-11-01T10:45:46.435Z,218.00
2022-11-01T10:46:40.909Z,231.00
2022-11-01T10:47:40.869Z,210.00
2022-11-01T10:48:40.907Z,219.00
2022-11-01T10:50:00.649Z,301.00
2022-11-01T10:50:40.959Z,334.00
2022-11-01T10:51:40.973Z,321.00
2022-11-01T10:52:41.021Z,373.00
2022-11-01T10:53:41.015Z,478.00
2022-11-01T10:54:41.060Z,501.00
2022-11-01T10:55:41.070Z,460.00
2022-11-01T10:56:41.089Z,471.00
2022-11-01T10:57:41.064Z,548.00
2022-11-01T10:58:41.100Z,636.00
2022-11-01T10:59:41.112Z,687.00
2022-11-01T11:00:41.164Z,733.00
2022-11-01T11:01:41.301Z,759.00
2022-11-01T11:02:41.324Z,766.00
2022-11-01T11:03:41.174Z,777.00
2022-11-01T11:04:41.191Z,789.00
2022-11-01T11:05:41.214Z,783.00
2022-11-01T11:06:41.200Z,783.00
2022-11-01T11:07:41.212Z,756.00
2022-11-01T11:08:41.252Z,760.00
2022-11-01T11:09:41.205Z,743.00
2022-11-01T11:10:41.212Z,712.00
2022-11-01T11:11:41.241Z,732.00
2022-11-01T11:12:41.245Z,788.00
2022-11-01T11:13:41.220Z,780.00
2022-11-01T11:14:41.235Z,791.00
2022-11-01T11:15:41.268Z,882.00
2022-11-01T11:16:41.265Z,779.00
2022-11-01T11:17:41.264Z,680.00
2022-11-01T11:18:41.234Z,635.00
2022-11-01T11:19:41.257Z,644.00
2022-11-01T11:20:41.277Z,643.00
2022-11-01T11:21:41.326Z,574.00
2022-11-01T11:22:41.299Z,546.00
2022-11-01T11:23:41.316Z,504.00
2022-11-01T11:24:41.360Z,488.00
2022-11-01T11:25:41.378Z,455.00
2022-11-01T11:27:41.364Z,433.00
2022-11-01T11:28:41.394Z,381.00
2022-11-01T11:29:41.410Z,404.00
2022-11-01T11:30:41.393Z,422.00
2022-11-01T11:31:41.480Z,365.00
2022-11-01T11:32:41.403Z,340.00
2022-11-01T11:33:41.429Z,391.00
2022-11-01T11:34:41.455Z,407.00
2022-11-01T11:35:41.494Z,415.00
2022-11-01T11:36:42.040Z,527.00
2022-11-01T11:37:41.503Z,594.00
2022-11-01T11:38:41.533Z,538.00
2022-11-01T11:39:41.553Z,535.00
2022-11-01T11:40:41.606Z,503.00
2022-11-01T11:41:41.571Z,509.00
2022-11-01T11:42:41.607Z,544.00
2022-11-01T11:43:41.658Z,536.00
2022-11-01T11:44:41.629Z,499.00
2022-11-01T11:45:41.635Z,467.00
2022-11-01T11:46:41.667Z,436.00
2022-11-01T11:47:41.747Z,450.00
2022-11-01T11:48:41.714Z,431.00
2022-11-01T11:49:41.748Z,351.00
2022-11-01T11:50:41.770Z,319.00
2022-11-01T11:51:41.784Z,259.00
2022-11-01T11:52:41.844Z,271.00
2022-11-01T11:53:41.821Z,281.00
2022-11-01T11:54:41.842Z,413.00
2022-11-01T11:55:41.859Z,646.00
2022-11-01T11:56:41.907Z,792.00
2022-11-01T11:57:41.898Z,821.00
2022-11-01T11:58:41.882Z,816.00
2022-11-01T11:59:42.053Z,820.00
2022-11-01T12:00:41.898Z,787.00
2022-11-01T12:01:42.051Z,793.00
2022-11-01T12:02:42.055Z,795.00
2022-11-01T12:03:41.912Z,864.00
2022-11-01T12:04:41.950Z,714.00
2022-11-01T12:05:41.958Z,686.00
2022-11-01T12:06:41.986Z,659.00
2022-11-01T12:07:42.000Z,699.00
2022-11-01T12:08:41.984Z,675.00
2022-11-01T12:09:41.999Z,684.00
2022-11-01T12:10:42.022Z,716.00
2022-11-01T12:11:42.051Z,671.00
2022-11-01T12:12:42.104Z,633.00
2022-11-01T12:13:42.110Z,603.00
2022-11-01T12:14:42.142Z,594.00
2022-11-01T12:15:42.175Z,583.00
2022-11-01T12:16:42.190Z,588.00
2022-11-01T12:17:42.212Z,586.00
2022-11-01T12:18:42.192Z,579.00
2022-11-01T12:19:42.226Z,582.00
2022-11-01T12:20:42.247Z,595.00
2022-11-01T12:21:42.275Z,604.00
2022-11-01T12:22:42.260Z,598.00
2022-11-01T12:23:42.290Z,598.00
2022-11-01T12:24:42.319Z,598.00
2022-11-01T12:25:42.362Z,612.00
2022-11-01T12:26:42.342Z,603.00
2022-11-01T12:27:42.384Z,613.00
2022-11-01T12:28:42.422Z,618.00
2022-11-01T12:29:42.382Z,613.00
2022-11-01T12:30:42.400Z,596.00
2022-11-01T12:31:42.425Z,564.00
2022-11-01T12:32:42.444Z,540.00
2022-11-01T12:33:42.421Z,565.00
2022-11-01T12:34:42.833Z,537.00
2022-11-01T12:35:42.454Z,518.00
2022-11-01T12:36:42.474Z,492.00
2022-11-01T12:37:42.502Z,469.00
2022-11-01T12:38:42.535Z,459.00
2022-11-01T12:39:42.553Z,444.00
2022-11-01T12:40:42.555Z,492.00
2022-11-01T12:41:42.523Z,483.00
2022-11-01T12:42:42.559Z,458.00
2022-11-01T12:43:42.575Z,459.00
2022-11-01T12:44:42.581Z,472.00
2022-11-01T12:45:42.584Z,492.00
2022-11-01T12:46:42.596Z,470.00
2022-11-01T12:47:42.616Z,537.00
2022-11-01T12:48:42.600Z,550.00
2022-11-01T12:49:42.645Z,573.00
2022-11-01T12:50:42.620Z,570.00
2022-11-01T12:51:42.637Z,566.00
2022-11-01T12:52:42.671Z,547.00
2022-11-01T12:53:42.678Z,552.00
2022-11-01T12:54:42.695Z,545.00
2022-11-01T12:55:42.725Z,538.00
2022-11-01T12:56:42.769Z,528.00
2022-11-01T12:57:42.773Z,491.00
2022-11-01T12:58:42.784Z,493.00